PPRuNe Forums - Search Results

Go Back  PPRuNe Forums > Search Forums
Reload this Page >

Search Results

Search: Posts Made By: isnow
Showing results 1 to 1 of 1
Search took 0.00 seconds.
25th Jun 2007, 00:24
Replies: 44
Views: 22,287
Posted By isnow

cargo boy - KSFB 231553Z 00000KT 10SM CLR 31/20...

cargo boy -
KSFB 231553Z 00000KT 10SM CLR 31/20 A2998 RMK AO2 SLP151 T03110200
Showing results 1 to 1 of 1


 
Forum Jump

Contact Us - Archive - Advertising - Cookie Policy - Privacy Statement - Terms of Service - Do Not Sell My Personal Information

Copyright 2018 MH Sub I, LLC dba Internet Brands. All rights reserved. Use of this site indicates your consent to the Terms of Use.